Time;durP1;ratioP1;P1;durP2;ratioP2;P2;SDS_P1;SDS_P2;PMS_P1;PMS_P2;Temp;Humidity;BMP_temperature;BMP_pressure;BME280_temperature;BME280_humidity;BME280_pressure;Samples;Min_cycle;Max_cycle;Signal;HPM_P1;HPM_P2
2023/02/07 00:01:52;;;;;;;;;;;;;;;-144.99;91.80;52590.78;5027320;28;20018;-77
2023/02/07 00:04:19;;;;;;;;;;;;;;;-144.99;91.75;52590.78;5021923;28;19976;-77
2023/02/07 00:06:45;;;;;;;;;;;;;;;-144.99;92.84;52619.31;5028337;28;20054;-77
2023/02/07 00:09:12;;;;;;;;;;;;;;;-144.99;92.23;52592.81;5029212;28;20354;-79
2023/02/07 00:11:39;;;;;;;;;;;;;;;-144.99;93.82;52586.69;5030094;28;19999;-74
2023/02/07 00:14:06;;;;;;;;;;;;;;;-144.99;93.22;52590.78;5022170;28;19943;-77
2023/02/07 00:16:34;;;;;;;;;;;;;;;-144.99;93.04;52566.31;5033480;28;19965;-80
2023/02/07 00:19:01;;;;;;;;;;;;;;;-144.99;92.40;52611.16;5029610;28;19973;-81
2023/02/07 00:21:29;;;;;;;;;;;;;;;-144.99;92.15;52615.25;5029289;28;20009;-76
2023/02/07 00:23:56;;;;;;;;;;;;;;;-144.99;92.49;52570.38;5027633;28;20014;-73
2023/02/07 00:26:24;;;;;;;;;;;;;;;-144.99;92.26;52558.16;5027763;28;20049;-74
2023/02/07 00:28:51;;;;;;;;;;;;;;;-144.99;92.38;52598.94;5024626;28;19952;-74
2023/02/07 00:31:18;;;;;;;;;;;;;;;-144.99;92.77;52570.38;5026223;28;20367;-75
2023/02/07 00:33:47;;;;;;;;;;;;;;;-144.99;92.83;52603.00;5030339;28;19976;-77
2023/02/07 00:36:15;;;;;;;;;;;;;;;-144.99;93.15;52607.09;5030983;28;19972;-74
2023/02/07 00:38:41;;;;;;;;;;;;;;;-144.99;93.03;52603.00;5027697;28;20026;-77
2023/02/07 00:41:08;;;;;;;;;;;;;;;-144.99;92.38;52586.69;5031054;28;19972;-76
2023/02/07 00:43:35;;;;;;;;;;;;;;;-144.99;92.47;52603.00;5032266;28;19925;-75
2023/02/07 00:46:02;;;;;;;;;;;;;;;-144.99;92.66;52615.25;5030189;28;20384;-75
2023/02/07 00:48:29;;;;;;;;;;;;;;;-144.99;92.52;52607.09;5028175;28;19964;-77
2023/02/07 00:50:58;;;;;;;;;;;;;;;-144.99;92.31;52598.94;5032015;28;19928;-75
2023/02/07 00:53:24;;;;;;;;;;;;;;;-144.99;92.18;52574.47;5028533;28;19929;-76
2023/02/07 00:55:51;;;;;;;;;;;;;;;-144.99;93.04;52594.84;5028051;28;19932;-77
2023/02/07 00:58:17;;;;;;;;;;;;;;;-144.99;92.65;52574.47;5028017;28;20427;-74
2023/02/07 01:00:44;;;;;;;;;;;;;;;-144.99;92.88;52594.84;5026145;28;20574;-73
2023/02/07 01:03:10;;;;;;;;;;;;;;;-144.99;93.08;52578.53;5027979;28;20382;-74
2023/02/07 01:05:37;;;;;;;;;;;;;;;-144.99;93.01;52605.03;5027403;28;19948;-75
2023/02/07 01:08:05;;;;;;;;;;;;;;;-144.99;92.47;52580.59;5026076;28;20003;-76
2023/02/07 01:10:32;;;;;;;;;;;;;;;-144.99;92.73;52562.25;5028136;28;19932;-76
2023/02/07 01:12:59;;;;;;;;;;;;;;;-144.99;93.29;52582.63;5027740;28;19979;-74
2023/02/07 01:15:26;;;;;;;;;;;;;;;-144.99;93.19;52556.13;5027203;28;19990;-76
2023/02/07 01:17:52;;;;;;;;;;;;;;;-144.99;92.94;52584.66;5020850;28;20396;-74
2023/02/07 01:20:19;;;;;;;;;;;;;;;-144.99;92.31;52586.69;5025351;28;20319;-73
2023/02/07 01:22:45;;;;;;;;;;;;;;;-144.99;92.06;52586.69;5026890;28;19983;-78
2023/02/07 01:25:13;;;;;;;;;;;;;;;-144.99;92.24;52568.34;5027262;28;19933;-75
2023/02/07 01:27:39;;;;;;;;;;;;;;;-144.99;92.75;52564.28;5024937;28;19929;-74
2023/02/07 01:30:06;;;;;;;;;;;;;;;-144.99;92.51;52594.84;5027387;28;19967;-75
2023/02/07 01:32:33;;;;;;;;;;;;;;;-144.99;93.21;52582.63;5023863;28;19992;-75
2023/02/07 01:35:00;;;;;;;;;;;;;;;-144.99;94.15;52578.53;5021101;28;19968;-74
2023/02/07 01:37:26;;;;;;;;;;;;;;;-144.99;93.43;52574.47;5012119;28;19933;-74
2023/02/07 01:39:53;;;;;;;;;;;;;;;-144.99;93.93;52574.47;5013100;28;19980;-74
2023/02/07 01:42:23;;;;;;;;;;;;;;;-144.99;92.60;52582.63;5013051;28;20016;-75
2023/02/07 01:45:00;;;;;;;;;;;;;;;-144.99;92.86;52570.38;5015710;28;20002;-75
2023/02/07 01:47:27;;;;;;;;;;;;;;;-144.99;93.03;52578.53;5027022;28;19944;-75
2023/02/07 01:49:56;;;;;;;;;;;;;;;-144.99;93.05;52533.69;5021255;28;19978;-77
2023/02/07 01:52:25;;;;;;;;;;;;;;;-144.99;92.63;52603.00;5011507;28;19986;-75
2023/02/07 01:54:56;;;;;;;;;;;;;;;-144.99;92.80;52607.09;5015366;28;20001;-77
2023/02/07 01:57:24;;;;;;;;;;;;;;;-144.99;92.73;52564.28;5014036;28;19959;-74
2023/02/07 01:59:53;;;;;;;;;;;;;;;-144.99;92.43;52592.81;5023889;28;19948;-76
2023/02/07 02:02:20;;;;;;;;;;;;;;;-144.99;92.44;52590.78;5027081;28;19987;-76
2023/02/07 02:04:48;;;;;;;;;;;;;;;-144.99;92.23;52586.69;5025664;28;20057;-78
2023/02/07 02:07:15;;;;;;;;;;;;;;;-144.99;91.95;52590.78;5024381;28;19932;-75
2023/02/07 02:09:42;;;;;;;;;;;;;;;-144.99;92.45;52586.69;5024962;28;20033;-75
2023/02/07 02:12:23;;;;;;;;;;;;;;;-144.99;92.28;52570.38;5025328;28;20385;-75
2023/02/07 02:15:00;;;;;;;;;;;;;;;-144.99;91.78;52570.38;5019886;28;19960;-77
2023/02/07 02:17:32;;;;;;;;;;;;;;;-144.99;91.56;52590.78;5020940;28;19955;-74
2023/02/07 02:20:18;;;;;;;;;;;;;;;-144.99;91.74;52611.16;5022949;28;20015;-75
2023/02/07 02:23:02;;;;;;;;;;;;;;;-144.99;91.95;52562.25;5021465;28;20093;-75
2023/02/07 02:25:40;;;;;;;;;;;;;;;-144.99;92.96;52586.69;5025686;28;19990;-71
2023/02/07 02:28:22;;;;;;;;;;;;;;;-144.99;92.74;52594.84;5021797;28;19996;-73
2023/02/07 02:31:00;;;;;;;;;;;;;;;-144.99;92.70;52592.81;5023878;28;20359;-73
2023/02/07 02:33:33;;;;;;;;;;;;;;;-144.99;92.34;52562.25;5018379;28;19948;-74
2023/02/07 02:36:05;;;;;;;;;;;;;;;-144.99;92.38;52619.31;5023599;28;19964;-74
2023/02/07 02:38:34;;;;;;;;;;;;;;;-144.99;93.31;52576.50;5032437;28;20160;-74
2023/02/07 02:41:05;;;;;;;;;;;;;;;-144.99;92.73;52578.53;5030416;28;20048;-75
2023/02/07 02:43:37;;;;;;;;;;;;;;;-144.99;93.07;52600.97;5026568;28;20016;-73
2023/02/07 02:46:08;;;;;;;;;;;;;;;-144.99;92.97;52598.94;5020925;28;19958;-73
2023/02/07 02:48:37;;;;;;;;;;;;;;;-144.99;92.56;52541.84;5023840;28;19940;-73
2023/02/07 02:51:04;;;;;;;;;;;;;;;-144.99;92.79;52598.94;5023632;28;20309;-71
2023/02/07 02:53:31;;;;;;;;;;;;;;;-144.99;93.16;52586.69;5024363;28;19935;-75
2023/02/07 02:56:13;;;;;;;;;;;;;;;-144.99;93.19;52598.94;5030594;28;20002;-75
2023/02/07 02:58:47;;;;;;;;;;;;;;;-144.99;92.97;52566.31;5023669;28;20000;-76
2023/02/07 03:01:18;;;;;;;;;;;;;;;-144.99;92.98;52594.84;5023375;28;19939;-74
2023/02/07 03:04:02;;;;;;;;;;;;;;;-144.99;92.75;52611.16;5024359;28;19929;-77
2023/02/07 03:06:41;;;;;;;;;;;;;;;-144.99;93.29;52594.84;5024560;28;19933;-76
2023/02/07 03:09:16;;;;;;;;;;;;;;;-144.99;94.58;52582.63;5025941;28;19959;-72
2023/02/07 03:11:49;;;;;;;;;;;;;;;-144.99;93.41;52574.47;5025820;28;19925;-74
2023/02/07 03:14:20;;;;;;;;;;;;;;;-144.99;93.87;52590.78;5025506;28;19952;-74
2023/02/07 03:16:50;;;;;;;;;;;;;;;-144.99;92.71;52586.69;5036516;28;19925;-75
2023/02/07 03:19:22;;;;;;;;;;;;;;;-144.99;93.91;52590.78;5042868;28;19925;-72
2023/02/07 03:21:52;;;;;;;;;;;;;;;-144.99;94.04;52574.47;5022621;28;20018;-74
2023/02/07 03:24:21;;;;;;;;;;;;;;;-144.99;92.26;52582.63;5026748;28;20296;-73
2023/02/07 03:26:48;;;;;;;;;;;;;;;-144.99;92.61;52572.44;5028259;28;19929;-78
2023/02/07 03:29:16;;;;;;;;;;;;;;;-144.99;92.68;52603.00;5027943;28;19928;-72
2023/02/07 03:31:45;;;;;;;;;;;;;;;-144.99;92.02;52623.38;5030681;28;19936;-73
2023/02/07 03:34:14;;;;;;;;;;;;;;;-144.99;91.35;52615.25;5036776;28;19968;-74
2023/02/07 03:36:46;;;;;;;;;;;;;;;-144.99;91.39;52586.69;5031708;28;19975;-74
2023/02/07 03:39:13;;;;;;;;;;;;;;;-144.99;91.00;52545.94;5029653;28;19982;-74
2023/02/07 03:41:42;;;;;;;;;;;;;;;-144.99;90.97;52586.69;5030659;28;19933;-72
2023/02/07 03:44:10;;;;;;;;;;;;;;;-144.99;90.41;52582.63;5029661;28;19932;-76
2023/02/07 03:46:37;;;;;;;;;;;;;;;-144.99;91.68;52588.75;5029489;28;19979;-77
2023/02/07 03:49:04;;;;;;;;;;;;;;;-144.99;92.45;52572.44;5081305;22;19925;-76
2023/02/07 03:51:31;;;;;;;;;;;;;;;-144.99;93.50;52603.00;5090004;28;19938;-76
2023/02/07 03:53:58;;;;;;;;;;;;;;;-144.99;93.61;52600.97;5069519;28;20421;-77
2023/02/07 03:56:25;;;;;;;;;;;;;;;-144.99;93.59;52600.97;5071595;28;20383;-76
2023/02/07 03:58:51;;;;;;;;;;;;;;;-144.99;93.50;52570.38;5069328;28;19924;-76
2023/02/07 04:01:18;;;;;;;;;;;;;;;-144.99;92.79;52611.16;5066961;28;19954;-77
2023/02/07 04:03:44;;;;;;;;;;;;;;;-144.99;92.75;52580.59;5070887;28;19935;-78
2023/02/07 04:06:11;;;;;;;;;;;;;;;-144.99;93.05;52574.47;5082283;28;19924;-78
2023/02/07 04:08:38;;;;;;;;;;;;;;;-144.99;92.36;52598.94;5088747;28;19932;-75
2023/02/07 04:11:05;;;;;;;;;;;;;;;-144.99;92.40;52562.25;5084333;28;19913;-75
2023/02/07 04:13:32;;;;;;;;;;;;;;;-144.99;92.50;52596.88;5070687;28;19929;-76
2023/02/07 04:15:59;;;;;;;;;;;;;;;-144.99;92.33;52574.47;5070568;28;19924;-77
2023/02/07 04:18:25;;;;;;;;;;;;;;;-144.99;92.47;52582.63;5084356;28;19932;-77
2023/02/07 04:20:52;;;;;;;;;;;;;;;-144.99;92.43;52584.66;5088398;28;19946;-77
2023/02/07 04:23:18;;;;;;;;;;;;;;;-144.99;92.59;52631.53;5081489;28;19924;-76
2023/02/07 04:25:45;;;;;;;;;;;;;;;-144.99;93.05;52598.94;5081445;28;19928;-77
2023/02/07 04:28:12;;;;;;;;;;;;;;;-144.99;92.91;52586.69;5083539;28;19951;-77
2023/02/07 04:30:39;;;;;;;;;;;;;;;-144.99;92.82;52582.63;5091717;28;19925;-76
2023/02/07 04:33:05;;;;;;;;;;;;;;;-144.99;92.49;52578.53;5064998;28;19929;-76
2023/02/07 04:35:32;;;;;;;;;;;;;;;-144.99;92.57;52598.94;5069726;28;19940;-76
2023/02/07 04:37:58;;;;;;;;;;;;;;;-144.99;91.49;52550.00;5069056;28;20406;-77
2023/02/07 04:40:25;;;;;;;;;;;;;;;-144.99;90.95;52586.69;5070435;28;19928;-77
2023/02/07 04:42:51;;;;;;;;;;;;;;;-144.99;91.13;52590.78;5066570;28;20186;-76
2023/02/07 04:45:19;;;;;;;;;;;;;;;-144.99;91.82;52562.25;5068946;28;19949;-76
2023/02/07 04:47:46;;;;;;;;;;;;;;;-144.99;91.74;52619.31;5090383;28;20137;-77
2023/02/07 04:50:12;;;;;;;;;;;;;;;-144.99;91.32;52586.69;5089296;28;19925;-76
2023/02/07 04:52:40;;;;;;;;;;;;;;;-144.99;90.96;52586.69;5081270;28;19933;-74
2023/02/07 04:55:06;;;;;;;;;;;;;;;-144.99;91.14;52615.25;5070504;28;19951;-76
2023/02/07 04:57:33;;;;;;;;;;;;;;;-144.99;91.42;52603.00;5070989;28;19928;-74
2023/02/07 05:00:00;;;;;;;;;;;;;;;-144.99;91.72;52609.13;5070072;28;19978;-77
2023/02/07 05:02:28;;;;;;;;;;;;;;;-144.99;92.60;52590.78;5077128;28;19924;-76
2023/02/07 05:04:54;;;;;;;;;;;;;;;-144.99;93.17;52558.16;5085616;28;19974;-74
2023/02/07 05:07:21;;;;;;;;;;;;;;;-144.99;93.12;52615.25;5089542;28;19950;-76
2023/02/07 05:09:47;;;;;;;;;;;;;;;-144.99;93.19;52605.03;5094050;28;20071;-75
2023/02/07 05:12:13;;;;;;;;;;;;;;;-144.99;93.00;52605.03;5090056;28;19924;-75
2023/02/07 05:14:40;;;;;;;;;;;;;;;-144.99;92.71;52556.13;5090486;28;19939;-75
2023/02/07 05:17:07;;;;;;;;;;;;;;;-144.99;92.46;52578.53;5087242;28;19924;-75
2023/02/07 05:19:34;;;;;;;;;;;;;;;-144.99;92.49;52617.28;5082253;28;20069;-75
2023/02/07 05:22:01;;;;;;;;;;;;;;;-144.99;92.82;52576.50;5068682;28;20425;-75
2023/02/07 05:24:27;;;;;;;;;;;;;;;-144.99;92.80;52586.69;5071100;28;19936;-77
2023/02/07 05:26:54;;;;;;;;;;;;;;;-144.99;92.81;52574.47;5071387;28;20280;-76
2023/02/07 05:29:20;;;;;;;;;;;;;;;-144.99;93.07;52586.69;5070279;28;19978;-75
2023/02/07 05:34:31;;;;;;;;;;;;;;;-144.99;93.64;52570.38;5072893;28;20788;-76
2023/02/07 05:36:59;;;;;;;;;;;;;;;-144.99;93.86;52613.19;5080565;28;19978;-75
2023/02/07 05:39:25;;;;;;;;;;;;;;;-144.99;94.15;52590.78;5074968;28;19928;-76
2023/02/07 05:41:52;;;;;;;;;;;;;;;-144.99;94.03;52570.38;5082465;28;19924;-74
2023/02/07 05:44:18;;;;;;;;;;;;;;;-144.99;94.01;52619.31;5070525;28;19928;-74
2023/02/07 05:46:45;;;;;;;;;;;;;;;-144.99;93.97;52613.19;5081035;28;19938;-75
2023/02/07 05:49:11;;;;;;;;;;;;;;;-144.99;94.07;52578.53;5092231;28;20514;-75
2023/02/07 05:51:38;;;;;;;;;;;;;;;-144.99;94.65;52564.28;5082476;28;19929;-74
2023/02/07 05:54:05;;;;;;;;;;;;;;;-144.99;93.83;52605.03;5076988;28;19924;-75
2023/02/07 05:56:32;;;;;;;;;;;;;;;-144.99;93.99;52623.38;5071063;28;19932;-76
2023/02/07 05:58:58;;;;;;;;;;;;;;;-144.99;93.36;52627.47;5074165;28;19970;-76
2023/02/07 06:01:25;;;;;;;;;;;;;;;-144.99;93.87;52613.19;5067281;28;19975;-75
2023/02/07 06:03:51;;;;;;;;;;;;;;;-144.99;94.05;52562.25;5072569;28;19970;-75
2023/02/07 06:06:18;;;;;;;;;;;;;;;-144.99;94.27;52572.44;5065491;28;21643;-74
2023/02/07 06:08:44;;;;;;;;;;;;;;;-144.99;94.42;52590.78;5062656;28;19928;-75
2023/02/07 06:11:12;;;;;;;;;;;;;;;-144.99;94.30;52596.88;5065423;28;19932;-76
2023/02/07 06:13:39;;;;;;;;;;;;;;;-144.99;94.27;52605.03;5069012;28;19932;-76
2023/02/07 06:16:05;;;;;;;;;;;;;;;-144.99;94.46;52537.78;5068632;28;19924;-76
2023/02/07 06:18:32;;;;;;;;;;;;;;;-144.99;94.20;52598.94;5075602;28;19987;-76
2023/02/07 06:20:58;;;;;;;;;;;;;;;-144.99;93.97;52611.16;5074138;28;19925;-77
2023/02/07 06:23:25;;;;;;;;;;;;;;;-144.99;94.99;52615.25;5084187;28;19925;-78
2023/02/07 06:25:51;;;;;;;;;;;;;;;-144.99;94.48;52598.94;5077731;28;19928;-77
2023/02/07 06:28:19;;;;;;;;;;;;;;;-144.99;95.01;52582.63;5091411;28;19928;-76
2023/02/07 06:30:46;;;;;;;;;;;;;;;-144.99;95.05;52572.44;4727602;28;9999855;-76
2023/02/07 06:33:12;;;;;;;;;;;;;;;-144.99;94.69;52603.00;5071179;28;19977;-77
2023/02/07 06:35:45;;;;;;;;;;;;;;;-144.99;94.93;52603.00;5070769;28;19950;-78
2023/02/07 06:38:12;;;;;;;;;;;;;;;-144.99;94.82;52605.03;5060598;28;19929;-77
2023/02/07 06:40:39;;;;;;;;;;;;;;;-144.99;95.23;52594.84;5066179;28;19929;-76
2023/02/07 06:43:05;;;;;;;;;;;;;;;-144.99;94.65;52574.47;5077626;28;19924;-77
2023/02/07 06:45:33;;;;;;;;;;;;;;;-144.99;94.06;52598.94;5071742;28;19936;-79
2023/02/07 06:47:59;;;;;;;;;;;;;;;-144.99;94.44;52568.34;5066088;28;19968;-77
2023/02/07 06:50:26;;;;;;;;;;;;;;;-144.99;94.45;52545.94;5065712;28;19975;-77
2023/02/07 06:52:52;;;;;;;;;;;;;;;-144.99;94.64;52562.25;5062509;28;19928;-78
2023/02/07 06:55:19;;;;;;;;;;;;;;;-144.99;94.62;52582.63;5066813;28;19932;-77
2023/02/07 06:57:45;;;;;;;;;;;;;;;-144.99;94.57;52558.16;5067227;28;19948;-76
2023/02/07 07:00:13;;;;;;;;;;;;;;;-144.99;94.47;52586.69;5067026;28;19929;-76
2023/02/07 07:02:41;;;;;;;;;;;;;;;-144.99;94.50;52578.53;5067310;28;20225;-77
2023/02/07 07:05:08;;;;;;;;;;;;;;;-144.99;94.51;52570.38;5068092;28;19929;-78
2023/02/07 07:07:34;;;;;;;;;;;;;;;-144.99;94.26;52537.78;5091808;28;19926;-76
2023/02/07 07:10:01;;;;;;;;;;;;;;;-144.99;94.73;52566.31;5086131;28;19935;-78
2023/02/07 07:12:27;;;;;;;;;;;;;;;-144.99;94.92;52541.84;5067361;28;20168;-78
2023/02/07 07:14:54;;;;;;;;;;;;;;;-144.99;94.99;52521.47;5076315;28;20147;-76
2023/02/07 07:17:20;;;;;;;;;;;;;;;-144.99;95.18;52566.31;5084994;28;19963;-77
2023/02/07 07:19:48;;;;;;;;;;;;;;;-144.99;95.00;52556.13;5084249;28;19966;-77
2023/02/07 07:22:15;;;;;;;;;;;;;;;-144.99;95.35;52566.31;5068471;28;19966;-78
2023/02/07 07:24:41;;;;;;;;;;;;;;;-144.99;95.67;52574.47;5075036;28;19935;-78
2023/02/07 07:27:08;;;;;;;;;;;;;;;-144.99;95.05;52550.00;5075793;28;19962;-79
2023/02/07 07:29:34;;;;;;;;;;;;;;;-144.99;95.72;52603.00;5071642;28;19959;-78
2023/02/07 07:32:01;;;;;;;;;;;;;;;-144.99;96.05;52570.38;5067531;28;20008;-78
2023/02/07 07:34:27;;;;;;;;;;;;;;;-144.99;95.70;52543.91;5064768;28;20395;-76
2023/02/07 07:36:56;;;;;;;;;;;;;;;-144.99;94.72;52570.38;5067956;28;19978;-77
2023/02/07 07:39:22;;;;;;;;;;;;;;;-144.99;94.89;52578.53;5067834;28;19958;-76
2023/02/07 07:41:49;;;;;;;;;;;;;;;-144.99;95.06;52568.34;5068613;28;20307;-76
2023/02/07 07:44:15;;;;;;;;;;;;;;;-144.99;95.21;52578.53;5064805;28;19932;-75
2023/02/07 07:46:42;;;;;;;;;;;;;;;-144.99;95.40;52578.53;5080424;28;20410;-76
2023/02/07 07:49:09;;;;;;;;;;;;;;;-144.99;95.32;52543.91;5079615;28;20439;-76
2023/02/07 07:51:35;;;;;;;;;;;;;;;-144.99;94.94;52533.69;5063337;28;20445;-75
2023/02/07 07:54:03;;;;;;;;;;;;;;;-144.99;93.38;52501.09;5062927;28;19990;-75
2023/02/07 07:56:30;;;;;;;;;;;;;;;-144.99;92.52;52588.75;5071456;28;20404;-77
2023/02/07 07:58:57;;;;;;;;;;;;;;;-144.99;92.14;52578.53;5062734;28;19935;-75
2023/02/07 08:01:23;;;;;;;;;;;;;;;-144.99;89.71;52574.47;5064491;28;19971;-74
2023/02/07 08:03:50;;;;;;;;;;;;;;;-144.99;89.94;52545.94;5064375;28;20364;-73
2023/02/07 08:06:16;;;;;;;;;;;;;;;-144.99;90.45;52550.00;5064161;28;19952;-76
2023/02/07 08:08:43;;;;;;;;;;;;;;;-144.99;89.77;52545.94;5065210;28;19935;-76
2023/02/07 08:11:11;;;;;;;;;;;;;;;-144.99;87.46;52582.63;5068302;28;20051;-75
2023/02/07 08:13:37;;;;;;;;;;;;;;;-144.99;87.00;52598.94;5069486;28;20001;-77
2023/02/07 08:16:07;;;;;;;;;;;;;;;-144.99;87.02;52529.63;5073351;28;19932;-76
2023/02/07 08:18:34;;;;;;;;;;;;;;;-144.99;88.15;52517.41;5069702;28;20366;-76
2023/02/07 08:21:01;;;;;;;;;;;;;;;-144.99;86.91;52537.78;5068233;28;19929;-75
2023/02/07 08:23:27;;;;;;;;;;;;;;;-144.99;86.95;52539.81;5066189;28;20033;-78
2023/02/07 08:25:54;;;;;;;;;;;;;;;-144.99;87.07;52554.09;5083803;28;19958;-77
2023/02/07 08:28:22;;;;;;;;;;;;;;;-144.99;85.90;52554.09;5081725;28;19966;-76
2023/02/07 08:30:49;;;;;;;;;;;;;;;-144.99;84.21;52517.41;5066826;28;19924;-76
2023/02/07 08:33:15;;;;;;;;;;;;;;;-144.99;84.61;52552.03;5067711;28;19924;-76
2023/02/07 08:35:42;;;;;;;;;;;;;;;-144.99;84.70;52550.00;5064215;28;20021;-77
2023/02/07 08:38:08;;;;;;;;;;;;;;;-144.99;84.63;52507.19;5065945;28;20006;-74
2023/02/07 08:40:36;;;;;;;;;;;;;;;-144.99;82.13;52545.94;5067333;28;19982;-75
2023/02/07 08:43:05;;;;;;;;;;;;;;;-144.99;80.94;52525.56;5065865;28;20016;-74
2023/02/07 08:45:33;;;;;;;;;;;;;;;-144.99;80.58;52541.84;5067660;28;19933;-75
2023/02/07 08:47:59;;;;;;;;;;;;;;;-144.99;79.82;52533.69;5065194;28;20028;-76
2023/02/07 08:50:26;;;;;;;;;;;;;;;-144.99;78.91;52558.16;5066811;28;19925;-77
2023/02/07 08:52:52;;;;;;;;;;;;;;;-144.99;78.86;52499.06;5058382;28;19929;-74
2023/02/07 08:55:19;;;;;;;;;;;;;;;-144.99;78.13;52533.69;5065547;28;19971;-76
2023/02/07 08:57:45;;;;;;;;;;;;;;;-144.99;77.39;52554.09;5071513;28;20395;-76
2023/02/07 09:00:12;;;;;;;;;;;;;;;-144.99;78.97;52558.16;5069839;28;20026;-76
2023/02/07 09:02:42;;;;;;;;;;;;;;;-144.99;78.36;52537.78;5078476;28;19923;-76
2023/02/07 09:05:09;;;;;;;;;;;;;;;-144.99;77.56;52562.25;5088050;28;19955;-76
2023/02/07 09:07:35;;;;;;;;;;;;;;;-144.99;78.11;52525.56;5061680;28;20347;-76
2023/02/07 09:10:03;;;;;;;;;;;;;;;-144.99;78.24;52547.97;5070864;28;19919;-75
2023/02/07 09:12:29;;;;;;;;;;;;;;;-144.99;76.65;52558.16;5068441;28;19924;-76
2023/02/07 09:14:58;;;;;;;;;;;;;;;-144.99;76.96;52574.47;5062576;28;20292;-76
2023/02/07 09:17:24;;;;;;;;;;;;;;;-144.99;75.29;52521.47;5066132;28;20383;-75
2023/02/07 09:19:52;;;;;;;;;;;;;;;-144.99;74.60;52539.81;5065258;28;20367;-76
2023/02/07 09:22:19;;;;;;;;;;;;;;;-144.99;72.93;52541.84;5057458;28;19936;-75
2023/02/07 09:24:45;;;;;;;;;;;;;;;-144.99;72.92;52515.34;5056350;28;19932;-75
2023/02/07 09:27:12;;;;;;;;;;;;;;;-144.99;73.60;52543.91;5058970;28;20040;-75
2023/02/07 09:29:38;;;;;;;;;;;;;;;-144.99;70.09;52505.16;5063232;28;19985;-76
2023/02/07 09:32:04;;;;;;;;;;;;;;;-144.99;70.58;52552.03;5065217;28;20009;-75
2023/02/07 09:34:32;;;;;;;;;;;;;;;-144.99;70.43;52501.09;5065475;28;19985;-75
2023/02/07 09:37:00;;;;;;;;;;;;;;;-144.99;68.71;52486.81;5062326;28;19991;-75
2023/02/07 09:39:26;;;;;;;;;;;;;;;-144.99;67.96;52492.94;5072308;28;19921;-75
2023/02/07 09:41:59;;;;;;;;;;;;;;;-144.99;65.96;52505.16;5090721;28;19912;-75
2023/02/07 09:44:29;;;;;;;;;;;;;;;-144.99;67.66;52525.56;5060515;28;20370;-74
2023/02/07 09:46:59;;;;;;;;;;;;;;;-144.99;66.43;52545.94;5063318;28;20455;-74
2023/02/07 09:49:34;;;;;;;;;;;;;;;-144.99;65.18;52543.91;5063264;28;20510;-73
2023/02/07 09:52:03;;;;;;;;;;;;;;;-144.99;63.00;52529.63;5066205;22;20471;-75
2023/02/07 09:54:33;;;;;;;;;;;;;;;-144.99;62.81;52529.63;5044893;28;20656;-76
2023/02/07 09:57:04;;;;;;;;;;;;;;;-144.99;63.60;52492.94;5056405;28;19925;-76
2023/02/07 09:59:33;;;;;;;;;;;;;;;-144.99;63.27;52501.09;5065252;28;19995;-75
2023/02/07 10:02:04;;;;;;;;;;;;;;;-144.99;61.92;52478.66;5054536;28;19940;-76
2023/02/07 10:04:35;;;;;;;;;;;;;;;-144.99;58.87;52452.16;5047016;28;20355;-75
2023/02/07 10:07:06;;;;;;;;;;;;;;;-144.99;58.46;52517.41;5043267;28;19928;-75
2023/02/07 10:09:34;;;;;;;;;;;;;;;-144.99;58.38;52468.47;5032941;28;19925;-75
2023/02/07 10:12:03;;;;;;;;;;;;;;;-144.99;56.30;52468.47;5034966;28;19987;-75
2023/02/07 10:14:43;;;;;;;;;;;;;;;-144.99;55.60;52497.00;5034433;28;19929;-74
2023/02/07 10:17:18;;;;;;;;;;;;;;;-144.99;54.94;52468.47;5039376;28;19928;-76
2023/02/07 10:19:50;;;;;;;;;;;;;;;-144.99;54.06;52423.63;5063230;28;19948;-74
2023/02/07 10:22:23;;;;;;;;;;;;;;;-144.99;53.51;52509.25;5067944;28;19928;-74
2023/02/07 10:25:04;;;;;;;;;;;;;;;-144.99;53.07;52464.41;5054223;28;19932;-75
2023/02/07 10:27:32;;;;;;;;;;;;;;;-144.99;53.35;52480.72;5043505;28;19935;-73
2023/02/07 10:30:03;;;;;;;;;;;;;;;-144.99;51.68;52399.19;5053654;28;19986;-75
2023/02/07 10:32:33;;;;;;;;;;;;;;;-144.99;50.80;52391.03;5042311;28;19998;-74
2023/02/07 10:35:01;;;;;;;;;;;;;;;-144.99;50.17;52411.41;5038010;28;20114;-75
2023/02/07 10:37:35;;;;;;;;;;;;;;;-144.99;48.72;52382.88;5040312;28;19935;-75
2023/02/07 10:40:04;;;;;;;;;;;;;;;-144.99;47.00;52346.19;5042781;28;19998;-75
2023/02/07 10:42:31;;;;;;;;;;;;;;;-144.99;46.59;52338.03;5039180;28;19929;-74
2023/02/07 10:44:58;;;;;;;;;;;;;;;-144.99;45.85;52321.72;5037670;28;19933;-75
2023/02/07 10:47:25;;;;;;;;;;;;;;;-144.99;43.98;52289.13;5044627;28;20422;-75
2023/02/07 10:49:53;;;;;;;;;;;;;;;-144.99;43.75;52289.13;5040248;28;19949;-74
2023/02/07 10:52:26;;;;;;;;;;;;;;;-144.99;43.89;52325.81;5042005;28;19960;-75
2023/02/07 10:54:55;;;;;;;;;;;;;;;-144.99;43.65;52307.47;5035033;28;20011;-75
2023/02/07 10:57:21;;;;;;;;;;;;;;;-144.99;42.62;52325.81;5045948;28;19936;-75
2023/02/07 10:59:49;;;;;;;;;;;;;;;-144.99;43.12;52280.97;5045097;28;20332;-75
2023/02/07 11:02:50;;;;;;;;;;;;;;;-144.99;42.86;52309.50;5037158;28;19928;-75
2023/02/07 11:05:41;;;;;;;;;;;;;;;-144.99;42.29;52256.50;5041525;28;20009;-74
2023/02/07 11:08:18;;;;;;;;;;;;;;;-144.99;42.33;52276.88;5033307;28;20005;-74
2023/02/07 11:10:47;;;;;;;;;;;;;;;-144.99;42.39;52313.56;5032135;28;20818;-74
2023/02/07 11:13:15;;;;;;;;;;;;;;;-144.99;41.98;52293.19;5044579;28;20392;-74
2023/02/07 11:15:47;;;;;;;;;;;;;;;-144.99;41.00;52236.13;5034309;28;19969;-73
2023/02/07 11:18:24;;;;;;;;;;;;;;;-144.99;40.69;52268.72;5037870;28;19937;-74
2023/02/07 11:20:54;;;;;;;;;;;;;;;-144.99;40.89;52268.72;5039371;28;20074;-74
2023/02/07 11:23:21;;;;;;;;;;;;;;;-144.99;39.89;52244.28;5035764;28;19932;-74
2023/02/07 11:25:53;;;;;;;;;;;;;;;-144.99;39.03;52191.28;5034004;28;19968;-74
2023/02/07 11:28:21;;;;;;;;;;;;;;;-144.99;38.09;52207.59;5039378;28;19959;-74
2023/02/07 11:30:52;;;;;;;;;;;;;;;-144.99;37.62;52227.97;5041506;28;20051;-75
2023/02/07 11:33:22;;;;;;;;;;;;;;;-144.99;36.43;52232.03;5039312;28;19959;-75
2023/02/07 11:36:01;;;;;;;;;;;;;;;-144.99;35.65;52215.75;5038268;28;20457;-74
2023/02/07 11:38:29;;;;;;;;;;;;;;;-144.99;35.51;52191.28;5040555;28;19998;-74
2023/02/07 11:41:02;;;;;;;;;;;;;;;-144.99;35.58;52203.50;5031626;28;19925;-72
2023/02/07 11:43:29;;;;;;;;;;;;;;;-144.99;36.09;52195.34;5034062;28;20342;-74
2023/02/07 11:46:00;;;;;;;;;;;;;;;-144.99;35.56;52183.13;5032176;28;19999;-75
2023/02/07 11:48:28;;;;;;;;;;;;;;;-144.99;34.82;52174.97;5038654;28;20014;-74
2023/02/07 11:50:55;;;;;;;;;;;;;;;-144.99;34.96;52197.41;5044111;28;19963;-74
2023/02/07 11:53:25;;;;;;;;;;;;;;;-144.99;34.57;52211.66;5034555;28;20025;-74
2023/02/07 11:55:53;;;;;;;;;;;;;;;-144.99;35.56;52250.38;5044104;28;19929;-74
2023/02/07 11:58:32;;;;;;;;;;;;;;;-144.99;35.68;52248.34;5041328;28;19960;-74
2023/02/07 12:01:00;;;;;;;;;;;;;;;-144.99;35.32;52223.88;5036797;28;19972;-73
2023/02/07 12:03:28;;;;;;;;;;;;;;;-144.99;34.96;52268.72;5045340;28;19989;-73
2023/02/07 12:05:56;;;;;;;;;;;;;;;-144.99;34.78;52215.75;5046370;28;20408;-73
2023/02/07 12:08:23;;;;;;;;;;;;;;;-144.99;33.96;52191.28;5044623;28;19928;-74
2023/02/07 12:10:52;;;;;;;;;;;;;;;-144.99;33.58;52248.34;5031243;28;19959;-74
2023/02/07 12:13:21;;;;;;;;;;;;;;;-144.99;33.81;52223.88;5036504;28;19955;-74
2023/02/07 12:15:51;;;;;;;;;;;;;;;-144.99;34.25;52252.44;5034632;28;20347;-74
2023/02/07 12:18:26;;;;;;;;;;;;;;;-144.99;34.42;52248.34;5043487;28;19994;-73
2023/02/07 12:20:57;;;;;;;;;;;;;;;-144.99;34.32;52211.66;5026404;28;19929;-75
2023/02/07 12:23:26;;;;;;;;;;;;;;;-144.99;34.12;52183.13;5027573;28;19925;-74
2023/02/07 12:25:55;;;;;;;;;;;;;;;-144.99;33.48;52191.28;5034022;28;19929;-73
2023/02/07 12:28:28;;;;;;;;;;;;;;;-144.99;33.53;52203.50;5039280;28;19994;-75
2023/02/07 12:30:58;;;;;;;;;;;;;;;-144.99;32.79;52199.44;5036984;28;20017;-74
2023/02/07 12:33:30;;;;;;;;;;;;;;;-144.99;31.94;52148.47;5034606;28;19983;-74
2023/02/07 12:36:01;;;;;;;;;;;;;;;-144.99;32.06;52150.53;5033108;28;20040;-74